createdAt,value
2023-05-04T00:01:11.510Z,95.63
2023-05-04T00:03:39.564Z,95.35
2023-05-04T00:06:07.822Z,95.71
2023-05-04T00:08:36.035Z,95.22
2023-05-04T00:11:03.937Z,95.36
2023-05-04T00:13:31.842Z,95.33
2023-05-04T00:15:59.885Z,95.68
2023-05-04T00:18:27.765Z,95.34
2023-05-04T00:20:55.654Z,95.73
2023-05-04T00:23:23.536Z,95.39
2023-05-04T00:25:51.446Z,95.14
2023-05-04T00:28:19.419Z,95.09
2023-05-04T00:30:47.567Z,95.10
2023-05-04T00:33:15.702Z,94.63
2023-05-04T00:35:43.997Z,94.87
2023-05-04T00:38:13.278Z,95.04
2023-05-04T00:40:41.696Z,95.37
2023-05-04T00:43:09.571Z,95.46
2023-05-04T00:45:38.334Z,95.29
2023-05-04T00:48:07.050Z,95.41
2023-05-04T00:50:36.300Z,95.51
2023-05-04T00:53:09.393Z,95.42
2023-05-04T00:55:43.241Z,94.78
2023-05-04T00:58:11.701Z,94.89
2023-05-04T01:00:39.682Z,95.01
2023-05-04T01:03:10.394Z,94.92
2023-05-04T01:05:46.021Z,94.73
2023-05-04T01:08:17.797Z,94.60
2023-05-04T01:10:54.653Z,94.30
2023-05-04T01:13:23.046Z,94.09
2023-05-04T01:15:51.054Z,94.19
2023-05-04T01:18:19.071Z,94.19
2023-05-04T01:20:47.001Z,94.42
2023-05-04T01:23:15.032Z,93.99
2023-05-04T01:25:47.967Z,94.14
2023-05-04T01:28:24.479Z,94.01
2023-05-04T01:31:00.544Z,93.95
2023-05-04T01:33:30.187Z,93.78
2023-05-04T01:36:00.072Z,93.78
2023-05-04T01:38:28.631Z,93.98
2023-05-04T01:40:57.066Z,93.83
2023-05-04T01:43:25.391Z,93.82
2023-05-04T01:45:53.376Z,93.71
2023-05-04T01:48:21.341Z,93.75
2023-05-04T01:50:49.246Z,93.80
2023-05-04T01:53:17.203Z,93.53
2023-05-04T01:55:45.251Z,93.69
2023-05-04T01:58:13.595Z,93.29
2023-05-04T02:00:42.089Z,93.79
2023-05-04T02:03:10.808Z,93.81
2023-05-04T02:05:39.361Z,93.69
2023-05-04T02:08:07.273Z,93.44
2023-05-04T02:10:35.206Z,93.39
2023-05-04T02:13:03.131Z,93.44
2023-05-04T02:15:31.729Z,93.38
2023-05-04T02:17:59.679Z,93.06
2023-05-04T02:20:27.652Z,93.35
2023-05-04T02:22:55.615Z,92.71
2023-05-04T02:25:23.810Z,93.05
2023-05-04T02:27:51.838Z,92.94
2023-05-04T02:30:19.833Z,92.89
2023-05-04T02:32:47.915Z,93.07
2023-05-04T02:35:16.527Z,92.76
2023-05-04T02:37:44.483Z,92.50
2023-05-04T02:40:13.084Z,92.55
2023-05-04T02:42:41.035Z,92.66
2023-05-04T02:45:09.410Z,92.81
2023-05-04T02:47:37.390Z,93.00
2023-05-04T02:50:06.383Z,93.50
2023-05-04T02:52:34.649Z,93.44
2023-05-04T02:55:05.505Z,93.25
2023-05-04T02:57:33.435Z,93.33
2023-05-04T03:00:01.383Z,93.37
2023-05-04T03:02:29.569Z,93.00
2023-05-04T03:04:57.567Z,93.08
2023-05-04T03:07:28.094Z,93.21
2023-05-04T03:09:55.950Z,93.35
2023-05-04T03:12:24.821Z,93.10
2023-05-04T03:14:52.675Z,92.73
2023-05-04T03:17:20.610Z,92.75
2023-05-04T03:19:48.579Z,92.90
2023-05-04T03:22:16.622Z,92.60
2023-05-04T03:24:44.890Z,92.99
2023-05-04T03:27:13.916Z,92.94
2023-05-04T03:29:42.868Z,92.48
2023-05-04T03:32:13.370Z,92.17
2023-05-04T03:34:42.462Z,92.50
2023-05-04T03:37:10.718Z,92.88
2023-05-04T03:39:38.675Z,92.72
2023-05-04T03:42:06.563Z,92.84
2023-05-04T03:44:34.475Z,92.73
2023-05-04T03:47:02.485Z,92.46
2023-05-04T03:49:31.646Z,92.77
2023-05-04T03:51:59.573Z,92.57
2023-05-04T03:54:27.546Z,92.84
2023-05-04T03:56:55.881Z,92.40
2023-05-04T03:59:24.510Z,92.71
2023-05-04T04:01:53.086Z,93.02
2023-05-04T04:04:21.022Z,93.00
2023-05-04T04:06:48.957Z,93.03
2023-05-04T04:09:16.932Z,93.05
2023-05-04T04:11:44.942Z,92.86
2023-05-04T04:14:12.972Z,93.22
2023-05-04T04:16:41.025Z,93.17
2023-05-04T04:19:09.650Z,93.37
2023-05-04T04:21:37.593Z,93.50
2023-05-04T04:24:05.695Z,93.30
2023-05-04T04:26:34.229Z,93.03
2023-05-04T04:29:02.144Z,92.89
2023-05-04T04:31:30.792Z,93.56
2023-05-04T04:33:59.446Z,93.42
2023-05-04T04:36:27.372Z,93.60
2023-05-04T04:38:55.809Z,93.67
2023-05-04T04:41:25.078Z,93.82
2023-05-04T04:43:53.206Z,93.64
2023-05-04T04:46:21.080Z,93.49
2023-05-04T04:48:49.321Z,93.39
2023-05-04T04:51:17.302Z,93.34
2023-05-04T04:53:45.557Z,93.41
2023-05-04T04:56:13.479Z,93.38
2023-05-04T04:58:41.698Z,93.41
2023-05-04T05:01:09.698Z,93.28
2023-05-04T05:03:37.688Z,93.31
2023-05-04T05:06:05.597Z,93.14
2023-05-04T05:08:33.977Z,93.05
2023-05-04T05:11:01.853Z,93.18
2023-05-04T05:13:32.631Z,93.08
2023-05-04T05:16:00.921Z,93.02
2023-05-04T05:18:29.499Z,93.05
2023-05-04T05:20:57.916Z,93.00
2023-05-04T05:23:25.853Z,92.98
2023-05-04T05:25:53.799Z,92.77
2023-05-04T05:28:22.177Z,92.31
2023-05-04T05:30:52.139Z,92.19
2023-05-04T05:33:20.328Z,91.82
2023-05-04T05:35:48.290Z,91.68
2023-05-04T05:38:17.712Z,91.74
2023-05-04T05:40:45.666Z,91.62
2023-05-04T05:43:13.686Z,91.36
2023-05-04T05:45:41.715Z,90.91
2023-05-04T05:48:09.674Z,90.66
2023-05-04T05:50:37.596Z,89.99
2023-05-04T05:53:05.637Z,89.98
2023-05-04T05:55:33.549Z,90.00
2023-05-04T05:58:01.479Z,89.60
2023-05-04T06:00:29.521Z,89.53
2023-05-04T06:02:57.529Z,89.11
2023-05-04T06:05:25.583Z,88.50
2023-05-04T06:07:53.431Z,88.04
2023-05-04T06:10:21.344Z,88.34
2023-05-04T06:12:49.276Z,87.85
2023-05-04T06:15:17.326Z,87.50
2023-05-04T06:17:45.529Z,86.57
2023-05-04T06:20:13.869Z,86.10
2023-05-04T06:22:42.006Z,86.04
2023-05-04T06:25:10.158Z,86.23
2023-05-04T06:27:38.147Z,86.06
2023-05-04T06:30:06.937Z,86.01
2023-05-04T06:32:35.407Z,85.53
2023-05-04T06:35:03.560Z,83.89
2023-05-04T06:37:31.473Z,83.29
2023-05-04T06:39:59.377Z,82.36
2023-05-04T06:42:31.752Z,81.77
2023-05-04T06:44:59.638Z,82.00
2023-05-04T06:47:27.602Z,82.55
2023-05-04T06:49:55.600Z,82.12
2023-05-04T06:52:23.497Z,82.35
2023-05-04T06:54:51.436Z,82.34
2023-05-04T06:57:19.423Z,81.71
2023-05-04T06:59:47.334Z,81.79
2023-05-04T07:02:15.193Z,79.45
2023-05-04T07:04:43.064Z,79.55
2023-05-04T07:07:11.049Z,78.89
2023-05-04T07:09:38.920Z,75.50
2023-05-04T07:12:07.076Z,75.18
2023-05-04T07:14:35.040Z,76.48
2023-05-04T07:17:02.986Z,74.05
2023-05-04T07:19:30.896Z,71.99
2023-05-04T07:22:00.463Z,69.22
2023-05-04T07:24:31.939Z,70.12
2023-05-04T07:26:59.922Z,69.97
2023-05-04T07:29:27.938Z,69.63
2023-05-04T07:31:55.945Z,68.57
2023-05-04T07:34:33.862Z,65.83
2023-05-04T07:37:10.309Z,66.48
2023-05-04T07:39:39.079Z,67.52
2023-05-04T07:42:08.205Z,64.03
2023-05-04T07:44:36.533Z,57.98
2023-05-04T07:47:04.687Z,58.35
2023-05-04T07:49:33.917Z,61.19
2023-05-04T07:52:01.924Z,63.26
2023-05-04T07:54:29.817Z,64.24
2023-05-04T07:56:57.684Z,65.25
2023-05-04T07:59:25.674Z,64.70
2023-05-04T08:01:53.606Z,62.14
2023-05-04T08:04:21.530Z,61.04
2023-05-04T08:06:49.794Z,60.71
2023-05-04T08:09:19.109Z,59.22
2023-05-04T08:11:48.100Z,58.89
2023-05-04T08:14:16.290Z,58.58
2023-05-04T08:16:47.809Z,58.51
2023-05-04T08:19:15.772Z,59.04
2023-05-04T08:21:43.663Z,57.17
2023-05-04T08:24:11.668Z,56.97
2023-05-04T08:26:39.691Z,58.33
2023-05-04T08:29:10.822Z,57.23
2023-05-04T08:31:40.599Z,57.50
2023-05-04T08:34:08.659Z,55.76
2023-05-04T08:36:36.557Z,57.17
2023-05-04T08:39:04.438Z,55.78
2023-05-04T08:41:33.383Z,55.35
2023-05-04T08:44:01.418Z,55.89
2023-05-04T08:46:32.750Z,55.63
2023-05-04T08:49:00.808Z,55.22
2023-05-04T08:51:31.607Z,51.58
2023-05-04T08:53:59.774Z,51.21
2023-05-04T08:56:27.748Z,51.95
2023-05-04T08:59:01.817Z,51.90
2023-05-04T09:01:31.481Z,52.72
2023-05-04T09:04:02.675Z,51.72
2023-05-04T09:06:31.849Z,52.94
2023-05-04T09:08:59.735Z,52.09
2023-05-04T09:11:27.855Z,52.33
2023-05-04T09:13:55.790Z,51.38
2023-05-04T09:16:33.443Z,50.83
2023-05-04T09:19:01.952Z,51.45
2023-05-04T09:21:31.331Z,51.31
2023-05-04T09:23:59.461Z,52.14
2023-05-04T09:26:28.598Z,51.19
2023-05-04T09:28:57.132Z,50.68
2023-05-04T09:31:25.198Z,50.75
2023-05-04T09:33:53.932Z,49.65
2023-05-04T09:36:23.215Z,49.69
2023-05-04T09:38:51.178Z,51.32
2023-05-04T09:41:19.832Z,51.24
2023-05-04T09:43:47.695Z,50.44
2023-05-04T09:46:19.503Z,49.96
2023-05-04T09:48:56.781Z,50.03
2023-05-04T09:51:27.456Z,50.15
2023-05-04T09:53:57.344Z,49.37
2023-05-04T09:56:48.138Z,50.45
2023-05-04T09:59:18.131Z,49.68
2023-05-04T10:01:46.394Z,48.87
2023-05-04T10:04:14.640Z,49.10
2023-05-04T10:06:43.515Z,48.66
2023-05-04T10:09:13.152Z,48.34
2023-05-04T10:11:42.572Z,49.47
2023-05-04T10:14:10.922Z,48.41
2023-05-04T10:16:51.740Z,48.13
2023-05-04T10:19:39.669Z,48.23
2023-05-04T10:22:25.960Z,47.70
2023-05-04T10:25:22.628Z,46.75
2023-05-04T10:27:53.425Z,45.55
2023-05-04T10:30:22.095Z,45.94
2023-05-04T10:32:56.169Z,46.14
2023-05-04T10:35:24.726Z,47.02
2023-05-04T10:37:56.693Z,46.26
2023-05-04T10:40:38.691Z,45.78
2023-05-04T10:43:08.011Z,46.06
2023-05-04T10:45:40.084Z,46.52
2023-05-04T10:48:09.302Z,45.66
2023-05-04T10:50:49.897Z,44.18
2023-05-04T10:53:18.848Z,44.34
2023-05-04T10:55:48.850Z,44.91
2023-05-04T10:58:19.263Z,44.78
2023-05-04T11:00:48.461Z,44.35
2023-05-04T11:03:16.859Z,44.84
2023-05-04T11:05:54.738Z,43.53
2023-05-04T11:08:26.629Z,43.67
2023-05-04T11:11:02.906Z,43.88
2023-05-04T11:13:32.130Z,43.75
2023-05-04T11:16:00.534Z,42.79
2023-05-04T11:18:37.738Z,42.50
2023-05-04T11:21:05.851Z,42.00
2023-05-04T11:23:34.181Z,41.48
2023-05-04T11:26:07.482Z,41.54
2023-05-04T11:28:37.596Z,42.35
2023-05-04T11:31:16.278Z,41.38
2023-05-04T11:33:55.023Z,41.28
2023-05-04T11:36:23.620Z,41.72
2023-05-04T11:38:51.590Z,41.34
2023-05-04T11:41:19.578Z,41.19
2023-05-04T11:43:48.178Z,40.35
2023-05-04T11:46:16.771Z,40.99
2023-05-04T11:48:45.354Z,41.36
2023-05-04T11:51:13.584Z,40.93
2023-05-04T11:53:41.948Z,41.13
2023-05-04T11:56:10.078Z,41.70
2023-05-04T11:58:38.033Z,41.22
2023-05-04T12:01:06.016Z,40.95
2023-05-04T12:03:51.991Z,40.90
2023-05-04T12:06:32.520Z,40.27
2023-05-04T12:09:06.459Z,40.26
2023-05-04T12:11:35.874Z,40.64
2023-05-04T12:14:04.113Z,39.83
2023-05-04T12:16:32.221Z,40.45
2023-05-04T12:19:06.180Z,39.18
2023-05-04T12:21:35.358Z,39.40
2023-05-04T12:24:03.951Z,38.73
2023-05-04T12:26:31.884Z,38.61
2023-05-04T12:28:59.795Z,39.52
2023-05-04T12:31:28.752Z,39.22
2023-05-04T12:33:56.689Z,38.85
2023-05-04T12:36:24.812Z,38.45
2023-05-04T12:38:52.949Z,38.76
2023-05-04T12:41:20.820Z,39.33
2023-05-04T12:43:49.451Z,38.33
2023-05-04T12:46:21.500Z,38.83
2023-05-04T12:48:49.918Z,38.69
2023-05-04T12:51:17.872Z,36.60
2023-05-04T12:53:45.901Z,36.68
2023-05-04T12:56:14.079Z,36.98
2023-05-04T12:58:41.952Z,36.32
2023-05-04T13:01:09.908Z,35.79
2023-05-04T13:03:37.964Z,36.07
2023-05-04T13:06:06.202Z,36.62
2023-05-04T13:08:34.087Z,36.22
2023-05-04T13:11:02.070Z,36.08
2023-05-04T13:13:30.870Z,35.78
2023-05-04T13:15:59.023Z,36.26
2023-05-04T13:18:27.944Z,33.68
2023-05-04T13:20:56.691Z,35.41
2023-05-04T13:23:24.688Z,34.63
2023-05-04T13:25:53.037Z,34.58
2023-05-04T13:28:21.019Z,35.32
2023-05-04T13:30:49.016Z,35.13
2023-05-04T13:33:28.941Z,34.32
2023-05-04T13:36:03.185Z,33.77
2023-05-04T13:38:31.260Z,34.79
2023-05-04T13:40:59.227Z,34.24
2023-05-04T13:43:27.234Z,33.52
2023-05-04T13:45:57.156Z,33.84
2023-05-04T13:48:26.297Z,33.95
2023-05-04T13:50:54.410Z,34.06
2023-05-04T13:53:22.441Z,33.88
2023-05-04T13:55:50.457Z,34.21
2023-05-04T13:58:18.465Z,33.39
2023-05-04T14:00:46.419Z,33.75
2023-05-04T14:03:14.396Z,32.87
2023-05-04T14:05:42.619Z,32.86
2023-05-04T14:08:10.558Z,33.50
2023-05-04T14:10:38.488Z,33.09
2023-05-04T14:13:06.584Z,32.76
2023-05-04T14:15:34.562Z,32.57
2023-05-04T14:18:03.081Z,31.86
2023-05-04T14:20:32.324Z,32.68
2023-05-04T14:23:00.202Z,32.01
2023-05-04T14:25:28.192Z,31.42
2023-05-04T14:27:56.344Z,32.30
2023-05-04T14:30:24.377Z,32.37
2023-05-04T14:32:56.021Z,32.50
2023-05-04T14:35:24.213Z,31.90
2023-05-04T14:37:52.254Z,31.50
2023-05-04T14:40:20.460Z,31.50
2023-05-04T14:42:48.364Z,31.48
2023-05-04T14:45:17.384Z,30.88
2023-05-04T14:47:45.599Z,30.64
2023-05-04T14:50:17.981Z,31.23
2023-05-04T14:52:46.848Z,31.01
2023-05-04T14:55:14.761Z,30.65
2023-05-04T14:57:42.702Z,30.11
2023-05-04T15:00:11.583Z,30.45
2023-05-04T15:02:39.778Z,30.65
2023-05-04T15:05:10.343Z,30.06
2023-05-04T15:07:38.401Z,30.62
2023-05-04T15:10:08.503Z,30.15
2023-05-04T15:12:37.908Z,30.25
2023-05-04T15:15:06.590Z,30.29
2023-05-04T15:17:35.053Z,30.13
2023-05-04T15:20:03.452Z,30.76
2023-05-04T15:22:31.337Z,30.90
2023-05-04T15:24:59.485Z,30.83
2023-05-04T15:27:27.841Z,29.80
2023-05-04T15:29:56.256Z,29.96
2023-05-04T15:32:24.316Z,29.68
2023-05-04T15:35:04.293Z,29.77
2023-05-04T15:37:33.140Z,29.76
2023-05-04T15:40:02.520Z,30.31
2023-05-04T15:42:30.921Z,30.61
2023-05-04T15:44:58.891Z,30.85
2023-05-04T15:47:26.933Z,30.87
2023-05-04T15:49:54.900Z,30.17
2023-05-04T15:52:24.039Z,30.35
2023-05-04T15:54:52.032Z,30.36
2023-05-04T15:57:20.033Z,30.82
2023-05-04T15:59:49.806Z,30.82
2023-05-04T16:02:18.201Z,30.53
2023-05-04T16:04:46.248Z,30.28
2023-05-04T16:07:14.687Z,30.27
2023-05-04T16:09:42.801Z,30.08
2023-05-04T16:12:11.092Z,30.68
2023-05-04T16:14:39.105Z,31.01
2023-05-04T16:17:07.526Z,30.73
2023-05-04T16:19:35.844Z,30.75
2023-05-04T16:22:03.763Z,30.79
2023-05-04T16:24:31.892Z,30.68
2023-05-04T16:26:59.797Z,30.71
2023-05-04T16:29:27.746Z,31.15
2023-05-04T16:31:56.388Z,31.14
2023-05-04T16:34:24.385Z,31.14
2023-05-04T16:36:52.288Z,31.14
2023-05-04T16:39:20.280Z,31.66
2023-05-04T16:41:48.427Z,31.44
2023-05-04T16:44:16.583Z,31.34
2023-05-04T16:46:44.668Z,31.52
2023-05-04T16:49:14.718Z,31.64
2023-05-04T16:51:43.507Z,31.76
2023-05-04T16:54:11.454Z,32.02
2023-05-04T16:56:39.739Z,32.33
2023-05-04T16:59:07.748Z,32.61
2023-05-04T17:01:36.262Z,32.95
2023-05-04T17:04:04.425Z,33.10
2023-05-04T17:06:32.414Z,33.60
2023-05-04T17:09:00.346Z,33.70
2023-05-04T17:11:28.290Z,34.12
2023-05-04T17:13:56.229Z,34.37
2023-05-04T17:16:24.181Z,34.73
2023-05-04T17:18:52.106Z,35.12
2023-05-04T17:21:20.007Z,35.27
2023-05-04T17:23:47.902Z,35.56
2023-05-04T17:26:15.901Z,36.09
2023-05-04T17:28:43.927Z,36.61
2023-05-04T17:31:15.571Z,36.41
2023-05-04T17:33:43.584Z,36.82
2023-05-04T17:36:12.396Z,37.11
2023-05-04T17:38:41.124Z,37.53
2023-05-04T17:41:12.313Z,37.88
2023-05-04T17:43:40.417Z,38.48
2023-05-04T17:46:08.419Z,38.87
2023-05-04T17:48:36.857Z,38.81
2023-05-04T17:51:11.450Z,39.31
2023-05-04T17:53:39.353Z,39.63
2023-05-04T17:56:07.344Z,39.88
2023-05-04T17:58:35.566Z,40.76
2023-05-04T18:01:03.501Z,41.48
2023-05-04T18:03:31.889Z,40.84
2023-05-04T18:05:59.976Z,41.62
2023-05-04T18:08:28.027Z,41.92
2023-05-04T18:10:56.012Z,42.10
2023-05-04T18:13:24.074Z,42.69
2023-05-04T18:15:52.117Z,42.86
2023-05-04T18:18:20.089Z,43.05
2023-05-04T18:20:48.045Z,43.62
2023-05-04T18:23:16.004Z,44.21
2023-05-04T18:25:43.892Z,44.46
2023-05-04T18:28:11.750Z,44.96
2023-05-04T18:30:39.666Z,45.32
2023-05-04T18:33:08.272Z,44.22
2023-05-04T18:35:36.462Z,44.26
2023-05-04T18:38:04.449Z,44.24
2023-05-04T18:40:32.366Z,45.19
2023-05-04T18:43:00.354Z,45.11
2023-05-04T18:45:28.490Z,45.46
2023-05-04T18:47:56.567Z,46.46
2023-05-04T18:50:24.704Z,46.56
2023-05-04T18:52:54.190Z,46.63
2023-05-04T18:55:22.286Z,47.26
2023-05-04T18:57:50.941Z,47.50
2023-05-04T19:00:18.914Z,47.48
2023-05-04T19:02:46.962Z,47.64
2023-05-04T19:05:15.116Z,48.03
2023-05-04T19:07:43.085Z,47.68
2023-05-04T19:10:11.515Z,47.63
2023-05-04T19:12:40.063Z,47.52
2023-05-04T19:15:08.608Z,47.60
2023-05-04T19:17:37.207Z,47.98
2023-05-04T19:20:05.873Z,48.56
2023-05-04T19:22:34.077Z,48.86
2023-05-04T19:25:02.279Z,49.59
2023-05-04T19:27:30.996Z,49.57
2023-05-04T19:29:58.882Z,49.45
2023-05-04T19:32:26.846Z,49.98
2023-05-04T19:34:54.713Z,49.67
2023-05-04T19:37:22.673Z,50.58
2023-05-04T19:39:51.335Z,50.37
2023-05-04T19:42:19.383Z,50.43
2023-05-04T19:44:47.312Z,50.89
2023-05-04T19:47:15.268Z,51.26
2023-05-04T19:49:46.474Z,51.44
2023-05-04T19:52:14.672Z,51.94
2023-05-04T19:54:43.742Z,51.68
2023-05-04T19:57:11.623Z,51.84
2023-05-04T19:59:39.609Z,51.99
2023-05-04T20:02:08.876Z,52.12
2023-05-04T20:04:36.842Z,52.21
2023-05-04T20:07:04.731Z,52.11
2023-05-04T20:09:32.743Z,52.57
2023-05-04T20:12:00.725Z,52.65
2023-05-04T20:14:28.794Z,52.93
2023-05-04T20:16:56.920Z,52.90
2023-05-04T20:19:25.079Z,52.95
2023-05-04T20:21:53.012Z,53.30
2023-05-04T20:24:21.076Z,53.49
2023-05-04T20:26:49.013Z,53.78
2023-05-04T20:29:16.903Z,54.31
2023-05-04T20:31:44.934Z,54.22
2023-05-04T20:34:13.327Z,53.86
2023-05-04T20:36:41.221Z,54.21
2023-05-04T20:39:09.093Z,54.17
2023-05-04T20:41:38.184Z,54.57
2023-05-04T20:44:06.161Z,54.55
2023-05-04T20:46:34.233Z,54.75
2023-05-04T20:49:03.060Z,55.22
2023-05-04T20:51:31.697Z,55.07
2023-05-04T20:54:00.174Z,55.08
2023-05-04T20:56:28.134Z,55.13
2023-05-04T20:58:56.079Z,55.24
2023-05-04T21:01:24.274Z,55.33
2023-05-04T21:03:52.543Z,55.44
2023-05-04T21:06:21.151Z,55.76
2023-05-04T21:08:49.000Z,55.82
2023-05-04T21:11:16.969Z,56.03
2023-05-04T21:13:44.975Z,56.02
2023-05-04T21:16:12.986Z,56.13
2023-05-04T21:18:40.976Z,55.97
2023-05-04T21:21:09.272Z,56.23
2023-05-04T21:23:37.183Z,56.85
2023-05-04T21:26:06.258Z,57.14
2023-05-04T21:28:34.157Z,57.34
2023-05-04T21:31:07.038Z,57.19
2023-05-04T21:33:36.288Z,56.92
2023-05-04T21:36:14.107Z,57.45
2023-05-04T21:38:42.764Z,57.09
2023-05-04T21:41:15.549Z,58.46
2023-05-04T21:43:43.585Z,58.40
2023-05-04T21:46:12.907Z,58.69
2023-05-04T21:48:41.087Z,58.94
2023-05-04T21:51:09.097Z,59.40
2023-05-04T21:53:37.006Z,59.19
2023-05-04T21:56:09.482Z,58.94
2023-05-04T21:58:41.059Z,59.52
2023-05-04T22:01:09.796Z,59.85
2023-05-04T22:03:37.850Z,59.97
2023-05-04T22:06:06.638Z,59.99
2023-05-04T22:08:34.642Z,59.57
2023-05-04T22:11:02.650Z,59.53
2023-05-04T22:13:30.634Z,59.47
2023-05-04T22:15:58.565Z,59.46
2023-05-04T22:18:26.507Z,59.34
2023-05-04T22:20:54.546Z,59.49
2023-05-04T22:23:22.421Z,59.36
2023-05-04T22:25:50.359Z,59.63
2023-05-04T22:28:18.292Z,59.91
2023-05-04T22:30:46.314Z,59.49
2023-05-04T22:33:14.316Z,59.63
2023-05-04T22:35:42.277Z,59.58
2023-05-04T22:38:10.266Z,59.67
2023-05-04T22:40:40.424Z,59.85
2023-05-04T22:43:08.767Z,59.85
2023-05-04T22:45:37.564Z,60.26
2023-05-04T22:48:05.543Z,60.51
2023-05-04T22:50:33.497Z,60.57
2023-05-04T22:53:01.488Z,60.73
2023-05-04T22:55:29.425Z,61.09
2023-05-04T22:57:57.316Z,61.04
2023-05-04T23:00:25.595Z,60.85
2023-05-04T23:02:54.148Z,60.90
2023-05-04T23:05:22.194Z,60.91
2023-05-04T23:07:51.526Z,60.74
2023-05-04T23:10:19.965Z,60.97
2023-05-04T23:12:47.931Z,61.36
2023-05-04T23:15:15.986Z,61.14
2023-05-04T23:17:43.927Z,60.84
2023-05-04T23:20:13.438Z,60.64
2023-05-04T23:22:41.394Z,60.76
2023-05-04T23:25:09.461Z,60.95
2023-05-04T23:27:37.345Z,60.74
2023-05-04T23:30:06.615Z,60.96
2023-05-04T23:32:34.951Z,60.90
2023-05-04T23:35:03.411Z,60.63
2023-05-04T23:37:34.130Z,60.79
2023-05-04T23:40:02.327Z,60.60
2023-05-04T23:42:30.302Z,60.84
2023-05-04T23:44:58.219Z,60.59
2023-05-04T23:47:26.232Z,60.62
2023-05-04T23:49:54.140Z,60.60
2023-05-04T23:52:22.448Z,60.88
2023-05-04T23:54:54.198Z,60.83
2023-05-04T23:57:22.241Z,60.97
2023-05-04T23:59:50.329Z,60.83
